createdAt,value
2023-03-18T00:01:34.917Z,48.47
2023-03-18T00:04:04.329Z,47.98
2023-03-18T00:06:31.909Z,48.87
2023-03-18T00:08:59.753Z,48.55
2023-03-18T00:11:27.383Z,48.74
2023-03-18T00:13:55.506Z,48.31
2023-03-18T00:16:23.495Z,48.57
2023-03-18T00:18:51.783Z,49.00
2023-03-18T00:21:19.522Z,48.80
2023-03-18T00:23:49.605Z,48.64
2023-03-18T00:26:17.271Z,49.06
2023-03-18T00:28:45.228Z,48.80
2023-03-18T00:31:14.101Z,49.03
2023-03-18T00:33:46.125Z,49.15
2023-03-18T00:36:16.524Z,49.10
2023-03-18T00:38:46.102Z,49.20
2023-03-18T00:41:15.738Z,49.44
2023-03-18T00:43:46.760Z,49.54
2023-03-18T00:46:19.673Z,49.56
2023-03-18T00:48:48.332Z,49.56
2023-03-18T00:51:17.387Z,48.98
2023-03-18T00:53:48.083Z,49.36
2023-03-18T00:56:18.180Z,48.95
2023-03-18T00:58:47.448Z,49.02
2023-03-18T01:01:15.958Z,49.74
2023-03-18T01:03:44.755Z,49.48
2023-03-18T01:06:15.230Z,49.45
2023-03-18T01:08:43.753Z,49.82
2023-03-18T01:11:11.602Z,49.55
2023-03-18T01:13:41.359Z,49.26
2023-03-18T01:16:10.155Z,49.65
2023-03-18T01:18:38.946Z,49.15
2023-03-18T01:21:07.411Z,49.18
2023-03-18T01:23:39.208Z,49.39
2023-03-18T01:26:07.642Z,49.21
2023-03-18T01:28:37.556Z,49.27
2023-03-18T01:31:08.162Z,48.94
2023-03-18T01:33:36.754Z,49.19
2023-03-18T01:36:05.578Z,48.70
2023-03-18T01:38:34.735Z,49.27
2023-03-18T01:41:11.190Z,49.01
2023-03-18T01:43:42.769Z,49.38
2023-03-18T01:46:38.176Z,49.29
2023-03-18T01:49:14.119Z,48.99
2023-03-18T01:52:05.409Z,49.55
2023-03-18T01:54:40.450Z,49.28
2023-03-18T01:57:08.207Z,49.82
2023-03-18T01:59:41.330Z,49.36
2023-03-18T02:02:13.137Z,49.68
2023-03-18T02:04:48.253Z,49.29
2023-03-18T02:07:22.467Z,49.50
2023-03-18T02:09:52.143Z,49.91
2023-03-18T02:12:29.523Z,49.91
2023-03-18T02:15:03.875Z,49.70
2023-03-18T02:17:35.955Z,49.87
2023-03-18T02:20:03.799Z,49.75
2023-03-18T02:22:52.279Z,50.13
2023-03-18T02:25:44.425Z,49.93
2023-03-18T02:28:20.170Z,49.97
2023-03-18T02:30:52.554Z,49.86
2023-03-18T02:33:22.792Z,50.20
2023-03-18T02:41:05.537Z,50.24
2023-03-18T02:43:58.682Z,50.13
2023-03-18T02:46:41.296Z,51.01
2023-03-18T02:49:10.590Z,50.37
2023-03-18T02:51:39.598Z,51.00
2023-03-18T02:54:12.019Z,50.78
2023-03-18T02:56:41.261Z,50.58
2023-03-18T02:59:10.521Z,50.71
2023-03-18T03:01:40.151Z,50.35
2023-03-18T03:04:08.777Z,50.24
2023-03-18T03:06:37.186Z,50.17
2023-03-18T03:09:07.327Z,50.37
2023-03-18T03:11:36.505Z,50.17
2023-03-18T03:14:13.301Z,50.63
2023-03-18T03:16:41.802Z,50.12
2023-03-18T03:19:10.103Z,50.33
2023-03-18T03:21:37.981Z,49.75
2023-03-18T03:24:07.659Z,49.67
2023-03-18T03:26:35.987Z,49.56
2023-03-18T03:29:06.021Z,49.97
2023-03-18T03:31:34.501Z,49.97
2023-03-18T03:34:02.821Z,50.05
2023-03-18T03:36:30.799Z,50.06
2023-03-18T03:38:58.625Z,49.79
2023-03-18T03:41:27.596Z,49.42
2023-03-18T03:43:55.435Z,49.32
2023-03-18T03:46:23.551Z,49.45
2023-03-18T03:48:51.572Z,49.41
2023-03-18T03:51:19.155Z,49.65
2023-03-18T03:53:47.329Z,49.83
2023-03-18T03:56:16.026Z,49.87
2023-03-18T03:58:44.097Z,49.45
2023-03-18T04:01:11.931Z,49.61
2023-03-18T04:03:40.358Z,49.79
2023-03-18T04:06:08.971Z,49.80
2023-03-18T04:08:41.936Z,49.94
2023-03-18T04:11:10.102Z,49.61
2023-03-18T04:13:38.168Z,49.83
2023-03-18T04:16:06.229Z,50.08
2023-03-18T04:18:34.324Z,50.26
2023-03-18T04:21:02.661Z,50.16
2023-03-18T04:23:40.998Z,50.37
2023-03-18T04:26:09.384Z,50.37
2023-03-18T04:28:38.333Z,50.52
2023-03-18T04:31:08.622Z,50.43
2023-03-18T04:33:36.560Z,50.66
2023-03-18T04:36:04.505Z,50.61
2023-03-18T04:38:34.337Z,50.95
2023-03-18T04:41:02.022Z,50.87
2023-03-18T04:43:30.661Z,50.97
2023-03-18T04:45:58.658Z,50.99
2023-03-18T04:48:27.226Z,51.08
2023-03-18T04:50:57.353Z,51.45
2023-03-18T04:53:29.245Z,51.21
2023-03-18T04:55:58.185Z,51.20
2023-03-18T04:58:33.713Z,51.33
2023-03-18T05:01:13.178Z,51.32
2023-03-18T05:03:42.188Z,51.38
2023-03-18T05:06:21.823Z,51.36
2023-03-18T05:08:58.886Z,50.97
2023-03-18T05:11:29.832Z,51.04
2023-03-18T05:14:01.900Z,50.86
2023-03-18T05:16:36.913Z,50.89
2023-03-18T05:19:05.862Z,51.35
2023-03-18T05:21:34.352Z,51.36
2023-03-18T05:24:02.751Z,50.66
2023-03-18T05:26:36.131Z,49.93
2023-03-18T05:29:04.306Z,47.77
2023-03-18T05:31:44.595Z,46.31
2023-03-18T05:34:13.515Z,44.25
2023-03-18T05:36:44.116Z,43.45
2023-03-18T05:39:12.617Z,42.00
2023-03-18T05:41:40.916Z,40.93
2023-03-18T05:44:11.984Z,40.93
2023-03-18T05:46:42.046Z,40.29
2023-03-18T05:49:32.533Z,40.18
2023-03-18T05:52:17.886Z,40.05
2023-03-18T05:54:50.265Z,40.01
2023-03-18T05:57:24.929Z,39.06
2023-03-18T05:59:58.420Z,38.43
2023-03-18T06:02:27.783Z,38.28
2023-03-18T06:04:55.704Z,37.72
2023-03-18T06:07:24.244Z,38.01
2023-03-18T06:09:52.354Z,37.34
2023-03-18T06:12:23.063Z,35.94
2023-03-18T06:14:51.100Z,34.60
2023-03-18T06:17:18.966Z,33.44
2023-03-18T06:19:48.167Z,33.33
2023-03-18T06:22:16.884Z,33.29
2023-03-18T06:24:48.172Z,33.69
2023-03-18T06:27:18.121Z,34.35
2023-03-18T06:29:48.981Z,34.46
2023-03-18T06:32:19.126Z,34.35
2023-03-18T06:34:47.086Z,33.08
2023-03-18T06:37:15.360Z,32.10
2023-03-18T06:39:44.780Z,31.37
2023-03-18T06:42:14.054Z,30.73
2023-03-18T06:45:08.885Z,30.08
2023-03-18T06:47:50.041Z,30.47
2023-03-18T06:50:18.471Z,30.65
2023-03-18T06:52:46.083Z,30.57
2023-03-18T06:55:17.315Z,30.26
2023-03-18T06:57:46.809Z,29.86
2023-03-18T07:00:18.411Z,28.78
2023-03-18T07:02:46.106Z,27.93
2023-03-18T07:05:17.216Z,27.01
2023-03-18T07:07:46.243Z,26.64
2023-03-18T07:10:32.236Z,26.52
2023-03-18T07:13:08.969Z,26.55
2023-03-18T07:15:38.784Z,26.14
2023-03-18T07:18:06.706Z,26.50
2023-03-18T07:20:34.604Z,26.90
2023-03-18T07:23:03.255Z,27.05
2023-03-18T07:25:32.489Z,27.36
2023-03-18T07:28:00.606Z,27.68
2023-03-18T07:30:29.100Z,27.50
2023-03-18T07:32:56.862Z,27.30
2023-03-18T07:35:24.739Z,26.91
2023-03-18T07:37:52.335Z,26.69
2023-03-18T07:40:20.830Z,26.69
2023-03-18T07:42:48.514Z,26.90
2023-03-18T07:45:16.370Z,27.17
2023-03-18T07:47:46.586Z,27.04
2023-03-18T07:50:15.361Z,26.56
2023-03-18T07:52:43.061Z,26.27
2023-03-18T07:55:12.193Z,25.50
2023-03-18T07:57:40.795Z,25.26
2023-03-18T08:00:12.514Z,24.63
2023-03-18T08:02:43.241Z,23.86
2023-03-18T08:05:11.934Z,23.57
2023-03-18T08:07:39.595Z,22.96
2023-03-18T08:10:09.040Z,22.42
2023-03-18T08:12:51.664Z,22.09
2023-03-18T08:15:22.207Z,21.58
2023-03-18T08:17:50.666Z,21.13
2023-03-18T08:20:18.767Z,20.90
2023-03-18T08:22:46.676Z,20.40
2023-03-18T08:25:14.736Z,20.08
2023-03-18T08:27:42.688Z,20.00
2023-03-18T08:30:11.482Z,19.90
2023-03-18T08:32:39.432Z,20.04
2023-03-18T08:35:09.787Z,20.02
2023-03-18T08:37:37.654Z,19.42
2023-03-18T08:40:06.847Z,19.45
2023-03-18T08:42:34.375Z,19.93
2023-03-18T08:45:02.818Z,19.44
2023-03-18T08:47:30.962Z,19.49
2023-03-18T08:49:58.811Z,18.90
2023-03-18T08:52:26.496Z,19.00
2023-03-18T08:54:54.348Z,18.59
2023-03-18T08:57:22.005Z,18.90
2023-03-18T08:59:49.988Z,19.13
2023-03-18T09:02:18.381Z,18.86
2023-03-18T09:04:48.228Z,19.17
2023-03-18T09:07:17.931Z,19.61
2023-03-18T09:09:46.917Z,19.81
2023-03-18T09:12:14.867Z,20.04
2023-03-18T09:14:43.985Z,19.94
2023-03-18T09:17:12.510Z,19.80
2023-03-18T09:19:40.789Z,19.95
2023-03-18T09:22:09.467Z,20.04
2023-03-18T09:24:37.297Z,19.54
2023-03-18T09:27:05.054Z,19.64
2023-03-18T09:29:33.456Z,19.72
2023-03-18T09:32:01.065Z,19.61
2023-03-18T09:34:29.219Z,19.14
2023-03-18T09:36:58.194Z,19.33
2023-03-18T09:39:27.244Z,20.03
2023-03-18T09:42:07.126Z,19.96
2023-03-18T09:44:36.685Z,20.50
2023-03-18T09:47:12.084Z,20.45
2023-03-18T09:50:05.544Z,20.50
2023-03-18T09:52:52.426Z,20.79
2023-03-18T09:55:27.311Z,20.96
2023-03-18T09:58:03.028Z,20.99
2023-03-18T10:00:37.646Z,20.89
2023-03-18T10:03:42.598Z,20.30
2023-03-18T10:06:18.809Z,20.12
2023-03-18T10:09:09.840Z,19.73
2023-03-18T10:11:44.757Z,20.12
2023-03-18T10:14:36.192Z,20.37
2023-03-18T10:17:28.173Z,19.92
2023-03-18T10:19:59.375Z,20.41
2023-03-18T10:22:37.794Z,20.42
2023-03-18T10:25:20.823Z,20.84
2023-03-18T10:28:26.727Z,21.59
2023-03-18T10:31:32.124Z,22.27
2023-03-18T10:34:01.988Z,22.62
2023-03-18T10:37:05.495Z,23.16
2023-03-18T10:39:37.479Z,23.31
2023-03-18T10:42:37.709Z,23.94
2023-03-18T10:45:14.656Z,24.65
2023-03-18T10:47:49.514Z,25.49
2023-03-18T10:50:26.586Z,25.69
2023-03-18T10:53:13.256Z,26.29
2023-03-18T10:55:57.741Z,26.54
2023-03-18T10:58:28.061Z,26.66
2023-03-18T11:00:56.448Z,27.05
2023-03-18T11:03:38.224Z,27.02
2023-03-18T11:06:11.787Z,27.04
2023-03-18T11:08:40.974Z,27.09
2023-03-18T11:11:27.110Z,26.90
2023-03-18T11:13:57.533Z,26.97
2023-03-18T11:16:38.310Z,26.79
2023-03-18T11:19:25.623Z,27.06
2023-03-18T11:22:21.526Z,27.18
2023-03-18T11:25:12.481Z,27.43
2023-03-18T11:27:43.420Z,27.20
2023-03-18T11:30:24.228Z,27.25
2023-03-18T11:33:03.730Z,27.30
2023-03-18T11:35:44.192Z,27.44
2023-03-18T11:38:19.795Z,27.42
2023-03-18T11:40:47.865Z,27.10
2023-03-18T11:43:21.812Z,27.22
2023-03-18T11:45:57.683Z,26.96
2023-03-18T11:48:42.950Z,27.70
2023-03-18T11:51:33.644Z,27.34
2023-03-18T11:54:15.960Z,27.11
2023-03-18T11:57:06.537Z,27.46
2023-03-18T11:59:37.391Z,26.92
2023-03-18T12:02:13.849Z,26.54
2023-03-18T12:04:45.166Z,26.44
2023-03-18T12:07:38.144Z,26.03
2023-03-18T12:10:28.355Z,25.85
2023-03-18T12:13:17.946Z,25.60
2023-03-18T12:15:55.020Z,25.46
2023-03-18T12:19:05.128Z,25.50
2023-03-18T12:21:48.517Z,24.84
2023-03-18T12:24:48.109Z,25.47
2023-03-18T12:27:29.636Z,25.46
2023-03-18T12:30:43.441Z,25.66
2023-03-18T12:33:36.897Z,25.39
2023-03-18T12:36:44.366Z,25.20
2023-03-18T12:39:40.447Z,25.02
2023-03-18T12:42:18.670Z,25.45
2023-03-18T12:45:03.073Z,25.18
2023-03-18T12:47:48.170Z,25.26
2023-03-18T12:50:27.712Z,25.41
2023-03-18T12:53:20.604Z,25.26
2023-03-18T12:55:55.432Z,25.25
2023-03-18T12:58:39.778Z,24.98
2023-03-18T13:01:28.145Z,24.92
2023-03-18T13:04:02.918Z,25.12
2023-03-18T13:06:49.363Z,24.96
2023-03-18T13:09:57.401Z,24.47
2023-03-18T13:12:38.770Z,24.93
2023-03-18T13:15:27.163Z,25.01
2023-03-18T13:18:00.610Z,24.51
2023-03-18T13:20:33.242Z,24.79
2023-03-18T13:23:20.699Z,25.07
2023-03-18T13:25:48.536Z,25.10
2023-03-18T13:29:02.336Z,24.65
2023-03-18T13:32:06.307Z,24.72
2023-03-18T13:34:59.242Z,25.24
2023-03-18T13:38:04.921Z,24.83
2023-03-18T13:40:43.627Z,24.87
2023-03-18T13:43:17.489Z,24.84
2023-03-18T13:45:49.627Z,24.86
2023-03-18T13:48:36.834Z,24.92
2023-03-18T13:51:23.556Z,24.78
2023-03-18T13:53:54.708Z,25.00
2023-03-18T13:56:47.882Z,25.54
2023-03-18T13:59:33.956Z,25.48
2023-03-18T14:02:32.214Z,25.55
2023-03-18T14:05:00.409Z,25.71
2023-03-18T14:07:29.686Z,25.69
2023-03-18T14:10:18.515Z,25.81
2023-03-18T14:12:48.440Z,25.63
2023-03-18T14:15:16.337Z,25.69
2023-03-18T14:17:48.496Z,25.63
2023-03-18T14:20:18.985Z,25.81
2023-03-18T14:22:49.828Z,26.04
2023-03-18T14:25:40.457Z,26.01
2023-03-18T14:28:09.881Z,26.15
2023-03-18T14:30:37.468Z,26.30
2023-03-18T14:33:20.715Z,26.68
2023-03-18T14:35:49.805Z,27.01
2023-03-18T14:38:36.323Z,27.44
2023-03-18T14:41:14.150Z,27.64
2023-03-18T14:43:54.543Z,27.80
2023-03-18T14:46:31.466Z,28.13
2023-03-18T14:48:59.631Z,28.26
2023-03-18T14:51:31.546Z,28.24
2023-03-18T14:54:08.086Z,28.08
2023-03-18T14:56:42.752Z,28.20
2023-03-18T14:59:15.760Z,28.16
2023-03-18T15:01:50.538Z,28.35
2023-03-18T15:04:24.971Z,28.27
2023-03-18T15:06:53.235Z,28.15
2023-03-18T15:09:27.610Z,28.16
2023-03-18T15:11:55.389Z,28.37
2023-03-18T15:14:30.013Z,28.50
2023-03-18T15:17:01.439Z,28.62
2023-03-18T15:19:30.705Z,28.90
2023-03-18T15:22:04.453Z,28.96
2023-03-18T15:24:32.842Z,29.34
2023-03-18T15:27:08.453Z,29.27
2023-03-18T15:29:46.017Z,29.35
2023-03-18T15:32:28.389Z,29.41
2023-03-18T15:35:17.320Z,29.48
2023-03-18T15:37:46.566Z,29.51
2023-03-18T15:40:30.120Z,29.70
2023-03-18T15:43:04.523Z,29.94
2023-03-18T15:45:34.225Z,30.11
2023-03-18T15:48:09.942Z,30.59
2023-03-18T15:50:51.689Z,30.85
2023-03-18T15:53:25.341Z,31.23
2023-03-18T15:55:58.648Z,31.29
2023-03-18T15:58:34.023Z,31.69
2023-03-18T16:01:02.261Z,31.97
2023-03-18T16:03:33.791Z,32.22
2023-03-18T16:06:02.203Z,32.37
2023-03-18T16:08:30.522Z,32.74
2023-03-18T16:11:04.080Z,33.05
2023-03-18T16:13:35.273Z,33.52
2023-03-18T16:16:04.326Z,33.69
2023-03-18T16:18:32.658Z,33.88
2023-03-18T16:21:00.935Z,34.33
2023-03-18T16:23:28.584Z,34.60
2023-03-18T16:25:57.033Z,34.87
2023-03-18T16:28:28.105Z,34.83
2023-03-18T16:30:56.414Z,35.02
2023-03-18T16:33:24.869Z,35.71
2023-03-18T16:36:01.684Z,36.02
2023-03-18T16:38:31.188Z,35.81
2023-03-18T16:40:59.401Z,35.97
2023-03-18T16:43:30.602Z,36.33
2023-03-18T16:46:01.358Z,36.67
2023-03-18T16:48:29.104Z,36.87
2023-03-18T16:50:59.234Z,36.96
2023-03-18T16:53:31.536Z,37.07
2023-03-18T16:56:26.553Z,37.40
2023-03-18T16:58:54.704Z,37.59
2023-03-18T17:01:24.939Z,37.52
2023-03-18T17:03:53.249Z,37.84
2023-03-18T17:06:23.680Z,38.10
2023-03-18T17:08:52.527Z,37.87
2023-03-18T17:11:21.264Z,38.26
2023-03-18T17:13:48.843Z,38.35
2023-03-18T17:16:19.368Z,38.55
2023-03-18T17:18:47.121Z,38.70
2023-03-18T17:21:16.012Z,38.69
2023-03-18T17:23:43.723Z,38.74
2023-03-18T17:26:15.031Z,38.81
2023-03-18T17:28:45.805Z,39.01
2023-03-18T17:31:14.029Z,38.83
2023-03-18T17:33:41.983Z,38.95
2023-03-18T17:36:10.250Z,39.08
2023-03-18T17:38:37.969Z,39.26
2023-03-18T17:41:14.721Z,39.35
2023-03-18T17:43:42.539Z,39.71
2023-03-18T17:46:10.510Z,39.83
2023-03-18T17:48:39.652Z,39.61
2023-03-18T17:51:19.958Z,39.85
2023-03-18T17:53:56.475Z,39.64
2023-03-18T17:56:25.147Z,39.77
2023-03-18T17:58:53.433Z,40.06
2023-03-18T18:01:27.310Z,40.09
2023-03-18T18:03:59.961Z,39.99
2023-03-18T18:06:29.536Z,40.20
2023-03-18T18:09:02.353Z,40.30
2023-03-18T18:11:31.742Z,40.05
2023-03-18T18:14:25.045Z,40.22
2023-03-18T18:16:56.040Z,40.24
2023-03-18T18:19:24.304Z,40.72
2023-03-18T18:21:54.035Z,40.74
2023-03-18T18:24:30.826Z,40.87
2023-03-18T18:26:59.445Z,40.54
2023-03-18T18:29:29.587Z,41.13
2023-03-18T18:31:57.956Z,41.04
2023-03-18T18:34:25.737Z,41.39
2023-03-18T18:36:53.530Z,41.18
2023-03-18T18:39:21.210Z,41.13
2023-03-18T18:41:49.216Z,41.61
2023-03-18T18:44:16.875Z,41.68
2023-03-18T18:46:45.313Z,41.62
2023-03-18T18:49:23.713Z,41.85
2023-03-18T18:51:54.758Z,42.00
2023-03-18T18:54:23.638Z,41.85
2023-03-18T18:56:52.471Z,41.95
2023-03-18T18:59:26.804Z,41.90
2023-03-18T19:01:56.381Z,42.21
2023-03-18T19:04:24.985Z,42.43
2023-03-18T19:06:53.824Z,42.17
2023-03-18T19:09:26.194Z,42.28
2023-03-18T19:11:56.159Z,42.05
2023-03-18T19:14:27.359Z,42.44
2023-03-18T19:17:00.143Z,42.31
2023-03-18T19:19:31.267Z,42.23
2023-03-18T19:21:59.184Z,42.24
2023-03-18T19:24:33.042Z,42.40
2023-03-18T19:27:02.603Z,42.47
2023-03-18T19:29:32.670Z,42.65
2023-03-18T19:32:01.493Z,42.41
2023-03-18T19:34:32.123Z,42.43
2023-03-18T19:37:02.700Z,41.92
2023-03-18T19:39:30.756Z,42.37
2023-03-18T19:41:58.634Z,42.27
2023-03-18T19:44:26.956Z,42.04
2023-03-18T19:46:58.532Z,42.06
2023-03-18T19:49:31.550Z,42.29
2023-03-18T19:51:59.580Z,42.49
2023-03-18T19:54:37.064Z,42.43
2023-03-18T19:57:12.268Z,42.67
2023-03-18T19:59:40.063Z,42.89
2023-03-18T20:02:37.247Z,43.12
2023-03-18T20:05:16.723Z,43.13
2023-03-18T20:07:44.768Z,43.07
2023-03-18T20:10:14.007Z,43.41
2023-03-18T20:12:44.444Z,43.36
2023-03-18T20:15:16.575Z,43.55
2023-03-18T20:17:46.641Z,43.83
2023-03-18T20:20:20.559Z,44.15
2023-03-18T20:22:53.699Z,44.30
2023-03-18T20:25:28.329Z,44.22
2023-03-18T20:27:57.798Z,44.46
2023-03-18T20:30:34.326Z,44.45
2023-03-18T20:33:06.267Z,44.56
2023-03-18T20:35:37.546Z,44.71
2023-03-18T20:38:13.954Z,44.72
2023-03-18T20:40:43.870Z,45.11
2023-03-18T20:43:19.813Z,45.20
2023-03-18T20:45:47.515Z,45.49
2023-03-18T20:48:15.352Z,45.38
2023-03-18T20:50:43.098Z,45.59
2023-03-18T20:53:26.032Z,45.44
2023-03-18T20:55:53.798Z,45.61
2023-03-18T20:58:24.597Z,45.74
2023-03-18T21:00:53.359Z,45.66
2023-03-18T21:03:31.376Z,45.75
2023-03-18T21:06:01.757Z,45.61
2023-03-18T21:08:31.685Z,45.78
2023-03-18T21:11:02.003Z,45.73
2023-03-18T21:13:38.864Z,45.94
2023-03-18T21:16:11.631Z,46.21
2023-03-18T21:18:41.835Z,46.51
2023-03-18T21:21:20.759Z,46.42
2023-03-18T21:23:49.542Z,46.65
2023-03-18T21:26:17.251Z,46.71
2023-03-18T21:28:45.277Z,46.93
2023-03-18T21:31:26.820Z,46.88
2023-03-18T21:33:55.371Z,47.18
2023-03-18T21:36:23.196Z,47.14
2023-03-18T21:38:51.118Z,47.40
2023-03-18T21:41:30.051Z,47.60
2023-03-18T21:43:58.215Z,47.57
2023-03-18T21:46:27.143Z,47.95
2023-03-18T21:48:55.831Z,47.83
2023-03-18T21:51:40.115Z,47.90
2023-03-18T21:54:18.926Z,48.00
2023-03-18T21:56:46.613Z,48.03
2023-03-18T21:59:14.537Z,47.98
2023-03-18T22:01:42.128Z,48.28
2023-03-18T22:04:09.981Z,48.46
2023-03-18T22:06:37.617Z,48.55
2023-03-18T22:09:05.724Z,48.38
2023-03-18T22:11:33.443Z,48.92
2023-03-18T22:14:01.235Z,48.99
2023-03-18T22:16:28.886Z,48.84
2023-03-18T22:18:56.881Z,49.07
2023-03-18T22:21:27.545Z,49.50
2023-03-18T22:23:55.616Z,49.46
2023-03-18T22:26:23.529Z,49.42
2023-03-18T22:28:51.940Z,49.32
2023-03-18T22:31:23.014Z,49.18
2023-03-18T22:33:51.633Z,49.52
2023-03-18T22:36:21.867Z,49.40
2023-03-18T22:38:50.354Z,49.45
2023-03-18T22:41:20.720Z,49.39
2023-03-18T22:43:49.160Z,49.41
2023-03-18T22:46:16.952Z,49.79
2023-03-18T22:48:44.886Z,49.85
2023-03-18T22:51:33.637Z,49.92
2023-03-18T22:54:01.540Z,49.88
2023-03-18T22:56:32.176Z,50.17
2023-03-18T22:59:03.018Z,49.87
2023-03-18T23:01:31.681Z,49.78
2023-03-18T23:04:00.357Z,50.10
2023-03-18T23:06:28.685Z,49.98
2023-03-18T23:08:56.583Z,50.54
2023-03-18T23:11:24.234Z,50.55
2023-03-18T23:13:52.434Z,50.46
2023-03-18T23:16:22.813Z,50.39
2023-03-18T23:18:51.815Z,50.24
2023-03-18T23:21:24.681Z,50.27
2023-03-18T23:23:53.314Z,50.28
2023-03-18T23:26:21.667Z,50.37
2023-03-18T23:28:49.747Z,50.39
2023-03-18T23:31:17.915Z,50.34
2023-03-18T23:33:47.113Z,50.32
2023-03-18T23:36:14.721Z,50.64
2023-03-18T23:38:42.749Z,50.71
2023-03-18T23:41:10.358Z,50.82
2023-03-18T23:43:38.364Z,51.08
2023-03-18T23:46:06.285Z,50.53
2023-03-18T23:48:34.231Z,50.67
2023-03-18T23:51:02.250Z,50.67
2023-03-18T23:53:30.178Z,51.10
2023-03-18T23:55:57.781Z,50.92
2023-03-18T23:58:25.621Z,51.46
